sensor_id;sensor_type;location;lat;lon;timestamp;pressure;altitude;pressure_sealevel;temperature;humidity
51452;BME280;37521;52.020;-1.740;2023-02-02T00:01:33;100869.34;;;5.28;100.00
51452;BME280;37521;52.020;-1.740;2023-02-02T00:04:03;100872.84;;;5.27;100.00
51452;BME280;37521;52.020;-1.740;2023-02-02T00:06:31;100874.59;;;5.26;100.00
51452;BME280;37521;52.020;-1.740;2023-02-02T00:09:01;100871.09;;;5.27;100.00
51452;BME280;37521;52.020;-1.740;2023-02-02T00:11:29;100877.19;;;5.28;100.00
51452;BME280;37521;52.020;-1.740;2023-02-02T00:13:57;100872.81;;;5.31;100.00
51452;BME280;37521;52.020;-1.740;2023-02-02T00:16:45;100876.28;;;5.32;100.00
51452;BME280;37521;52.020;-1.740;2023-02-02T00:19:16;100880.66;;;5.33;100.00
51452;BME280;37521;52.020;-1.740;2023-02-02T00:21:45;100883.25;;;5.33;100.00
51452;BME280;37521;52.020;-1.740;2023-02-02T00:24:16;100884.16;;;5.32;100.00
51452;BME280;37521;52.020;-1.740;2023-02-02T00:26:46;100885.88;;;5.33;100.00
51452;BME280;37521;52.020;-1.740;2023-02-02T00:29:16;100876.31;;;5.30;100.00
51452;BME280;37521;52.020;-1.740;2023-02-02T00:31:46;100878.06;;;5.28;100.00
51452;BME280;37521;52.020;-1.740;2023-02-02T00:34:16;100871.16;;;5.24;100.00
51452;BME280;37521;52.020;-1.740;2023-02-02T00:36:46;100876.41;;;5.21;100.00
51452;BME280;37521;52.020;-1.740;2023-02-02T00:39:17;100876.41;;;5.21;100.00
51452;BME280;37521;52.020;-1.740;2023-02-02T00:41:46;100871.22;;;5.18;100.00
51452;BME280;37521;52.020;-1.740;2023-02-02T00:44:14;100878.22;;;5.16;100.00
51452;BME280;37521;52.020;-1.740;2023-02-02T00:47:00;100878.28;;;5.10;100.00
51452;BME280;37521;52.020;-1.740;2023-02-02T00:49:29;100880.91;;;5.08;100.00
51452;BME280;37521;52.020;-1.740;2023-02-02T00:51:57;100880.03;;;5.08;100.00
51452;BME280;37521;52.020;-1.740;2023-02-02T00:54:26;100887.91;;;5.05;100.00
51452;BME280;37521;52.020;-1.740;2023-02-02T00:56:54;100880.09;;;5.00;100.00
51452;BME280;37521;52.020;-1.740;2023-02-02T00:59:23;100879.34;;;4.90;100.00
51452;BME280;37521;52.020;-1.740;2023-02-02T01:01:51;100880.28;;;4.80;100.00
51452;BME280;37521;52.020;-1.740;2023-02-02T01:04:19;100882.97;;;4.76;100.00
51452;BME280;37521;52.020;-1.740;2023-02-02T01:06:49;100889.06;;;4.73;100.00
51452;BME280;37521;52.020;-1.740;2023-02-02T01:09:17;100890.81;;;4.73;100.00
51452;BME280;37521;52.020;-1.740;2023-02-02T01:11:46;100887.34;;;4.72;100.00
51452;BME280;37521;52.020;-1.740;2023-02-02T01:14:14;100887.34;;;4.72;100.00
51452;BME280;37521;52.020;-1.740;2023-02-02T01:16:43;100887.38;;;4.69;100.00
51452;BME280;37521;52.020;-1.740;2023-02-02T01:19:11;100889.09;;;4.70;100.00
51452;BME280;37521;52.020;-1.740;2023-02-02T01:21:40;100885.59;;;4.71;100.00
51452;BME280;37521;52.020;-1.740;2023-02-02T01:24:10;100887.34;;;4.72;100.00
51452;BME280;37521;52.020;-1.740;2023-02-02T01:26:38;100874.25;;;4.75;100.00
51452;BME280;37521;52.020;-1.740;2023-02-02T01:29:06;100873.38;;;4.76;100.00
51452;BME280;37521;52.020;-1.740;2023-02-02T01:31:34;100862.84;;;4.79;100.00
51452;BME280;37521;52.020;-1.740;2023-02-02T01:34:02;100866.41;;;4.75;100.00
51452;BME280;37521;52.020;-1.740;2023-02-02T01:36:31;100871.63;;;4.72;100.00
51452;BME280;37521;52.020;-1.740;2023-02-02T01:38:59;100870.78;;;4.72;100.00
51452;BME280;37521;52.020;-1.740;2023-02-02T01:41:28;100865.53;;;4.73;100.00
51452;BME280;37521;52.020;-1.740;2023-02-02T01:43:58;100858.53;;;4.74;100.00
51452;BME280;37521;52.020;-1.740;2023-02-02T01:46:28;100864.63;;;4.74;100.00
51452;BME280;37521;52.020;-1.740;2023-02-02T01:49:02;100853.34;;;4.68;100.00
51452;BME280;37521;52.020;-1.740;2023-02-02T01:51:35;100849.94;;;4.61;100.00
51452;BME280;37521;52.020;-1.740;2023-02-02T01:54:08;100862.19;;;4.56;100.00
51452;BME280;37521;52.020;-1.740;2023-02-02T01:56:42;100863.09;;;4.55;100.00
51452;BME280;37521;52.020;-1.740;2023-02-02T01:59:12;100855.22;;;4.53;100.00
51452;BME280;37521;52.020;-1.740;2023-02-02T02:01:44;100871.78;;;4.54;100.00
51452;BME280;37521;52.020;-1.740;2023-02-02T02:04:13;100878.81;;;4.49;100.00
51452;BME280;37521;52.020;-1.740;2023-02-02T02:06:43;100884.06;;;4.49;100.00
51452;BME280;37521;52.020;-1.740;2023-02-02T02:09:12;100877.88;;;4.57;100.00
51452;BME280;37521;52.020;-1.740;2023-02-02T02:11:42;100883.03;;;4.67;100.00
51452;BME280;37521;52.020;-1.740;2023-02-02T02:14:12;100873.38;;;4.73;100.00
51452;BME280;37521;52.020;-1.740;2023-02-02T02:17:13;100871.63;;;4.75;100.00
51452;BME280;37521;52.020;-1.740;2023-02-02T02:20:08;100869.06;;;4.69;100.00
51452;BME280;37521;52.020;-1.740;2023-02-02T02:23:25;100884.75;;;4.68;100.00
51452;BME280;37521;52.020;-1.740;2023-02-02T02:26:39;100871.69;;;4.69;100.00
51452;BME280;37521;52.020;-1.740;2023-02-02T02:32:17;100879.41;;;4.80;100.00
51452;BME280;37521;52.020;-1.740;2023-02-02T02:34:52;100875.06;;;4.80;100.00
51452;BME280;37521;52.020;-1.740;2023-02-02T02:37:33;100862.84;;;4.79;100.00
51452;BME280;37521;52.020;-1.740;2023-02-02T02:40:10;100873.31;;;4.79;100.00
51452;BME280;37521;52.020;-1.740;2023-02-02T02:42:43;100860.25;;;4.79;100.00
51452;BME280;37521;52.020;-1.740;2023-02-02T02:45:13;100854.09;;;4.83;100.00
51452;BME280;37521;52.020;-1.740;2023-02-02T02:47:43;100850.59;;;4.84;100.00
51452;BME280;37521;52.020;-1.740;2023-02-02T02:50:11;100850.56;;;4.87;100.00
51452;BME280;37521;52.020;-1.740;2023-02-02T02:52:40;100839.25;;;4.88;100.00
51452;BME280;37521;52.020;-1.740;2023-02-02T02:55:09;100846.28;;;4.82;100.00
51452;BME280;37521;52.020;-1.740;2023-02-02T02:57:57;100847.19;;;4.76;100.00
51452;BME280;37521;52.020;-1.740;2023-02-02T03:00:41;100838.47;;;4.74;100.00
51452;BME280;37521;52.020;-1.740;2023-02-02T03:03:22;100847.22;;;4.73;100.00
51452;BME280;37521;52.020;-1.740;2023-02-02T03:05:56;100847.19;;;4.76;100.00
51452;BME280;37521;52.020;-1.740;2023-02-02T03:08:31;100848.94;;;4.77;100.00
51452;BME280;37521;52.020;-1.740;2023-02-02T03:11:03;100850.66;;;4.78;100.00
51452;BME280;37521;52.020;-1.740;2023-02-02T03:13:33;100850.69;;;4.75;100.00
51452;BME280;37521;52.020;-1.740;2023-02-02T03:16:01;100851.56;;;4.74;100.00
51452;BME280;37521;52.020;-1.740;2023-02-02T03:18:32;100849.78;;;4.78;100.00
51452;BME280;37521;52.020;-1.740;2023-02-02T03:21:00;100847.16;;;4.79;100.00
51452;BME280;37521;52.020;-1.740;2023-02-02T03:23:29;100838.47;;;4.77;100.00
51452;BME280;37521;52.020;-1.740;2023-02-02T03:25:57;100845.47;;;4.72;100.00
51452;BME280;37521;52.020;-1.740;2023-02-02T03:28:26;100855.16;;;4.62;100.00
51452;BME280;37521;52.020;-1.740;2023-02-02T03:30:56;100861.38;;;4.51;100.00
51452;BME280;37521;52.020;-1.740;2023-02-02T03:33:26;100853.59;;;4.42;100.00
51452;BME280;37521;52.020;-1.740;2023-02-02T03:35:56;100854.50;;;4.37;100.00
51452;BME280;37521;52.020;-1.740;2023-02-02T03:38:25;100858.03;;;4.30;100.00
51452;BME280;37521;52.020;-1.740;2023-02-02T03:40:53;100847.63;;;4.24;100.00
51452;BME280;37521;52.020;-1.740;2023-02-02T03:43:22;100845.06;;;4.17;100.00
51452;BME280;37521;52.020;-1.740;2023-02-02T03:45:55;100839.00;;;4.10;100.00
51452;BME280;37521;52.020;-1.740;2023-02-02T03:48:23;100825.09;;;4.08;100.00
51452;BME280;37521;52.020;-1.740;2023-02-02T03:50:51;100832.00;;;4.12;100.00
51452;BME280;37521;52.020;-1.740;2023-02-02T03:53:21;100826.75;;;4.18;100.00
51452;BME280;37521;52.020;-1.740;2023-02-02T03:55:49;100832.81;;;4.20;100.00
51452;BME280;37521;52.020;-1.740;2023-02-02T03:58:17;100835.44;;;4.19;100.00
51452;BME280;37521;52.020;-1.740;2023-02-02T04:00:48;100846.78;;;4.19;100.00
51452;BME280;37521;52.020;-1.740;2023-02-02T04:03:16;100847.63;;;4.21;100.00
51452;BME280;37521;52.020;-1.740;2023-02-02T04:05:48;100865.97;;;4.17;100.00
51452;BME280;37521;52.020;-1.740;2023-02-02T04:08:17;100871.19;;;4.18;100.00
51452;BME280;37521;52.020;-1.740;2023-02-02T04:10:46;100868.59;;;4.15;100.00
51452;BME280;37521;52.020;-1.740;2023-02-02T04:13:14;100872.06;;;4.17;100.00
51452;BME280;37521;52.020;-1.740;2023-02-02T04:15:42;100866.75;;;4.29;100.00
51452;BME280;37521;52.020;-1.740;2023-02-02T04:18:11;100858.84;;;4.42;100.00
51452;BME280;37521;52.020;-1.740;2023-02-02T04:20:39;100857.00;;;4.50;100.00
51452;BME280;37521;52.020;-1.740;2023-02-02T04:23:07;100855.22;;;4.53;100.00
51452;BME280;37521;52.020;-1.740;2023-02-02T04:25:35;100857.84;;;4.55;100.00
51452;BME280;37521;52.020;-1.740;2023-02-02T04:28:05;100864.78;;;4.59;100.00
51452;BME280;37521;52.020;-1.740;2023-02-02T04:30:33;100870.00;;;4.59;100.00
51452;BME280;37521;52.020;-1.740;2023-02-02T04:33:01;100877.00;;;4.57;100.00
51452;BME280;37521;52.020;-1.740;2023-02-02T04:35:29;100867.41;;;4.57;100.00
51452;BME280;37521;52.020;-1.740;2023-02-02T04:37:58;100869.13;;;4.63;100.00
51452;BME280;37521;52.020;-1.740;2023-02-02T04:40:26;100869.94;;;4.68;100.00
51452;BME280;37521;52.020;-1.740;2023-02-02T04:42:56;100869.97;;;4.65;100.00
51452;BME280;37521;52.020;-1.740;2023-02-02T04:45:25;100859.50;;;4.63;100.00
51452;BME280;37521;52.020;-1.740;2023-02-02T04:47:54;100873.47;;;4.64;100.00
51452;BME280;37521;52.020;-1.740;2023-02-02T04:50:22;100865.59;;;4.65;100.00
51452;BME280;37521;52.020;-1.740;2023-02-02T04:52:50;100869.97;;;4.65;100.00
51452;BME280;37521;52.020;-1.740;2023-02-02T04:55:18;100867.31;;;4.70;100.00
51452;BME280;37521;52.020;-1.740;2023-02-02T04:57:47;100866.41;;;4.75;100.00
51452;BME280;37521;52.020;-1.740;2023-02-02T05:00:15;100862.84;;;4.79;100.00
51452;BME280;37521;52.020;-1.740;2023-02-02T05:02:45;100862.84;;;4.82;100.00
51452;BME280;37521;52.020;-1.740;2023-02-02T05:05:13;100859.34;;;4.80;100.00
51452;BME280;37521;52.020;-1.740;2023-02-02T05:07:42;100854.13;;;4.80;100.00
51452;BME280;37521;52.020;-1.740;2023-02-02T05:10:10;100854.13;;;4.80;100.00
51452;BME280;37521;52.020;-1.740;2023-02-02T05:12:38;100845.47;;;4.75;100.00
51452;BME280;37521;52.020;-1.740;2023-02-02T05:15:07;100850.75;;;4.66;100.00
51452;BME280;37521;52.020;-1.740;2023-02-02T05:17:36;100847.31;;;4.61;100.00
51452;BME280;37521;52.020;-1.740;2023-02-02T05:20:06;100848.22;;;4.61;100.00
51452;BME280;37521;52.020;-1.740;2023-02-02T05:22:34;100845.59;;;4.60;100.00
51452;BME280;37521;52.020;-1.740;2023-02-02T05:25:03;100852.53;;;4.61;100.00
51452;BME280;37521;52.020;-1.740;2023-02-02T05:27:31;100840.31;;;4.64;100.00
51452;BME280;37521;52.020;-1.740;2023-02-02T05:30:00;100846.41;;;4.68;100.00
51452;BME280;37521;52.020;-1.740;2023-02-02T05:32:28;100842.03;;;4.70;100.00
51452;BME280;37521;52.020;-1.740;2023-02-02T05:34:56;100836.75;;;4.73;100.00
51452;BME280;37521;52.020;-1.740;2023-02-02T05:37:26;100828.88;;;4.75;100.00
51452;BME280;37521;52.020;-1.740;2023-02-02T05:39:54;100838.41;;;4.80;100.00
51452;BME280;37521;52.020;-1.740;2023-02-02T05:42:22;100834.03;;;4.85;100.00
51452;BME280;37521;52.020;-1.740;2023-02-02T05:44:50;100827.88;;;4.89;100.00
51452;BME280;37521;52.020;-1.740;2023-02-02T05:47:19;100830.47;;;4.92;100.00
51452;BME280;37521;52.020;-1.740;2023-02-02T05:49:48;100833.06;;;4.96;100.00
51452;BME280;37521;52.020;-1.740;2023-02-02T05:52:18;100836.50;;;4.99;100.00
51452;BME280;37521;52.020;-1.740;2023-02-02T05:54:49;100834.72;;;5.03;100.00
51452;BME280;37521;52.020;-1.740;2023-02-02T05:57:17;100833.88;;;5.02;100.00
51452;BME280;37521;52.020;-1.740;2023-02-02T05:59:45;100838.28;;;4.96;100.00
51452;BME280;37521;52.020;-1.740;2023-02-02T06:02:14;100840.09;;;4.90;100.00
51452;BME280;37521;52.020;-1.740;2023-02-02T06:04:42;100848.88;;;4.83;100.00
51452;BME280;37521;52.020;-1.740;2023-02-02T06:07:10;100849.78;;;4.78;100.00
51452;BME280;37521;52.020;-1.740;2023-02-02T06:09:39;100846.34;;;4.73;100.00
51452;BME280;37521;52.020;-1.740;2023-02-02T06:12:08;100858.59;;;4.71;100.00
51452;BME280;37521;52.020;-1.740;2023-02-02T06:14:36;100852.44;;;4.73;100.00
51452;BME280;37521;52.020;-1.740;2023-02-02T06:17:04;100856.84;;;4.71;100.00
51452;BME280;37521;52.020;-1.740;2023-02-02T06:19:33;100848.06;;;4.74;100.00
51452;BME280;37521;52.020;-1.740;2023-02-02T06:22:01;100859.44;;;4.71;100.00
51452;BME280;37521;52.020;-1.740;2023-02-02T06:24:29;100867.28;;;4.71;100.00
51452;BME280;37521;52.020;-1.740;2023-02-02T06:26:58;100873.38;;;4.72;100.00
51452;BME280;37521;52.020;-1.740;2023-02-02T06:29:27;100869.06;;;4.69;100.00
51452;BME280;37521;52.020;-1.740;2023-02-02T06:31:55;100875.19;;;4.68;100.00
51452;BME280;37521;52.020;-1.740;2023-02-02T06:34:24;100886.50;;;4.69;100.00
51452;BME280;37521;52.020;-1.740;2023-02-02T06:36:52;100876.88;;;4.72;100.00
51452;BME280;37521;52.020;-1.740;2023-02-02T06:39:20;100880.34;;;4.76;100.00
51452;BME280;37521;52.020;-1.740;2023-02-02T06:41:48;100889.03;;;4.79;100.00
51452;BME280;37521;52.020;-1.740;2023-02-02T06:44:17;100884.63;;;4.81;100.00
51452;BME280;37521;52.020;-1.740;2023-02-02T06:46:48;100889.84;;;4.84;100.00
51452;BME280;37521;52.020;-1.740;2023-02-02T06:49:16;100889.81;;;4.87;100.00
51452;BME280;37521;52.020;-1.740;2023-02-02T06:51:46;100895.06;;;4.89;100.00
51452;BME280;37521;52.020;-1.740;2023-02-02T06:54:15;100896.78;;;4.90;100.00
51452;BME280;37521;52.020;-1.740;2023-02-02T06:56:43;100897.66;;;4.90;100.00
51452;BME280;37521;52.020;-1.740;2023-02-02T06:59:11;100892.41;;;4.90;100.00
51452;BME280;37521;52.020;-1.740;2023-02-02T07:01:39;100903.72;;;4.92;100.00
51452;BME280;37521;52.020;-1.740;2023-02-02T07:04:09;100897.59;;;4.97;100.00
51452;BME280;37521;52.020;-1.740;2023-02-02T07:06:38;100886.25;;;4.98;100.00
51452;BME280;37521;52.020;-1.740;2023-02-02T07:09:06;100892.38;;;4.97;100.00
51452;BME280;37521;52.020;-1.740;2023-02-02T07:11:34;100891.47;;;4.98;100.00
51452;BME280;37521;52.020;-1.740;2023-02-02T07:14:10;100882.75;;;4.97;100.00
51452;BME280;37521;52.020;-1.740;2023-02-02T07:16:39;100874.94;;;4.92;100.00
51452;BME280;37521;52.020;-1.740;2023-02-02T07:19:08;100886.34;;;4.88;100.00
51452;BME280;37521;52.020;-1.740;2023-02-02T07:21:36;100877.63;;;4.85;100.00
51452;BME280;37521;52.020;-1.740;2023-02-02T07:24:05;100886.41;;;4.82;100.00
51452;BME280;37521;52.020;-1.740;2023-02-02T07:26:34;100887.25;;;4.81;100.00
51452;BME280;37521;52.020;-1.740;2023-02-02T07:29:03;100894.22;;;4.84;100.00
51452;BME280;37521;52.020;-1.740;2023-02-02T07:31:31;100885.50;;;4.83;100.00
51452;BME280;37521;52.020;-1.740;2023-02-02T07:34:02;100895.97;;;4.83;100.00
51452;BME280;37521;52.020;-1.740;2023-02-02T07:36:32;100882.06;;;4.78;100.00
51452;BME280;37521;52.020;-1.740;2023-02-02T07:39:01;100883.84;;;4.73;100.00
51452;BME280;37521;52.020;-1.740;2023-02-02T07:41:33;100885.69;;;4.62;100.00
51452;BME280;37521;52.020;-1.740;2023-02-02T07:44:02;100894.47;;;4.52;100.00
51452;BME280;37521;52.020;-1.740;2023-02-02T07:46:30;100901.47;;;4.47;100.00
51452;BME280;37521;52.020;-1.740;2023-02-02T07:48:59;100904.16;;;4.42;100.00
51452;BME280;37521;52.020;-1.740;2023-02-02T07:51:27;100902.41;;;4.40;100.00
51452;BME280;37521;52.020;-1.740;2023-02-02T07:53:56;100904.09;;;4.45;100.00
51452;BME280;37521;52.020;-1.740;2023-02-02T07:56:26;100897.09;;;4.55;100.00
51452;BME280;37521;52.020;-1.740;2023-02-02T07:58:55;100887.44;;;4.61;100.00
51452;BME280;37521;52.020;-1.740;2023-02-02T08:01:25;100904.84;;;4.64;100.00
51452;BME280;37521;52.020;-1.740;2023-02-02T08:03:55;100904.84;;;4.61;100.00
51452;BME280;37521;52.020;-1.740;2023-02-02T08:06:27;100911.91;;;4.53;100.00
51452;BME280;37521;52.020;-1.740;2023-02-02T08:08:59;100910.19;;;4.49;100.00
51452;BME280;37521;52.020;-1.740;2023-02-02T08:11:28;100914.56;;;4.48;100.00
51452;BME280;37521;52.020;-1.740;2023-02-02T08:13:58;100925.91;;;4.46;100.00
51452;BME280;37521;52.020;-1.740;2023-02-02T08:16:29;100919.81;;;4.45;100.00
51452;BME280;37521;52.020;-1.740;2023-02-02T08:18:58;100917.16;;;4.50;100.00
51452;BME280;37521;52.020;-1.740;2023-02-02T08:21:26;100913.63;;;4.54;100.00
51452;BME280;37521;52.020;-1.740;2023-02-02T08:23:55;100915.38;;;4.53;100.00
51452;BME280;37521;52.020;-1.740;2023-02-02T08:26:26;100915.41;;;4.52;100.00
51452;BME280;37521;52.020;-1.740;2023-02-02T08:28:57;100919.72;;;4.54;100.00
51452;BME280;37521;52.020;-1.740;2023-02-02T08:31:27;100919.63;;;4.70;100.00
51452;BME280;37521;52.020;-1.740;2023-02-02T08:33:56;100922.03;;;4.92;100.00
51452;BME280;37521;52.020;-1.740;2023-02-02T08:36:28;100921.03;;;5.10;100.00
51452;BME280;37521;52.020;-1.740;2023-02-02T08:38:59;100914.78;;;5.25;100.00
51452;BME280;37521;52.020;-1.740;2023-02-02T08:41:30;100912.94;;;5.33;100.00
51452;BME280;37521;52.020;-1.740;2023-02-02T08:43:59;100917.28;;;5.36;100.00
51452;BME280;37521;52.020;-1.740;2023-02-02T08:46:27;100921.56;;;5.41;100.00
51452;BME280;37521;52.020;-1.740;2023-02-02T08:48:56;100921.50;;;5.51;100.00
51452;BME280;37521;52.020;-1.740;2023-02-02T08:51:24;100905.63;;;5.63;100.00
51452;BME280;37521;52.020;-1.740;2023-02-02T08:53:52;100920.34;;;5.73;100.00
51452;BME280;37521;52.020;-1.740;2023-02-02T08:56:21;100914.13;;;5.83;100.00
51452;BME280;37521;52.020;-1.740;2023-02-02T08:58:52;100928.88;;;5.90;100.00
51452;BME280;37521;52.020;-1.740;2023-02-02T09:01:22;100927.09;;;5.97;100.00
51452;BME280;37521;52.020;-1.740;2023-02-02T09:03:52;100923.53;;;6.03;100.00
51452;BME280;37521;52.020;-1.740;2023-02-02T09:06:21;100929.59;;;6.05;100.00
51452;BME280;37521;52.020;-1.740;2023-02-02T09:08:53;100937.44;;;6.06;100.00
51452;BME280;37521;52.020;-1.740;2023-02-02T09:11:21;100929.56;;;6.08;100.00
51452;BME280;37521;52.020;-1.740;2023-02-02T09:13:53;100930.41;;;6.08;100.00
51452;BME280;37521;52.020;-1.740;2023-02-02T09:16:23;100937.41;;;6.09;100.00
51452;BME280;37521;52.020;-1.740;2023-02-02T09:18:52;100934.72;;;6.14;100.00
51452;BME280;37521;52.020;-1.740;2023-02-02T09:21:20;100932.88;;;6.22;100.00
51452;BME280;37521;52.020;-1.740;2023-02-02T09:23:50;100929.28;;;6.29;100.00
51452;BME280;37521;52.020;-1.740;2023-02-02T09:26:21;100925.72;;;6.33;100.00
51452;BME280;37521;52.020;-1.740;2023-02-02T09:28:54;100922.19;;;6.34;100.00
51452;BME280;37521;52.020;-1.740;2023-02-02T09:31:23;100916.94;;;6.36;100.00
51452;BME280;37521;52.020;-1.740;2023-02-02T09:33:51;100921.25;;;6.40;100.00
51452;BME280;37521;52.020;-1.740;2023-02-02T09:36:21;100917.72;;;6.41;100.00
51452;BME280;37521;52.020;-1.740;2023-02-02T09:38:50;100921.25;;;6.40;100.00
51452;BME280;37521;52.020;-1.740;2023-02-02T09:41:33;100922.09;;;6.43;100.00
51452;BME280;37521;52.020;-1.740;2023-02-02T09:44:13;100930.72;;;6.50;100.00
51452;BME280;37521;52.020;-1.740;2023-02-02T09:46:54;100930.59;;;6.58;100.00
51452;BME280;37521;52.020;-1.740;2023-02-02T09:49:32;100927.84;;;6.67;100.00
51452;BME280;37521;52.020;-1.740;2023-02-02T09:52:06;100932.09;;;6.74;100.00
51452;BME280;37521;52.020;-1.740;2023-02-02T09:54:41;100927.72;;;6.76;100.00
51452;BME280;37521;52.020;-1.740;2023-02-02T09:57:15;100922.31;;;6.82;100.00
51452;BME280;37521;52.020;-1.740;2023-02-02T09:59:48;100930.97;;;6.89;100.00
51452;BME280;37521;52.020;-1.740;2023-02-02T10:02:20;100937.00;;;6.95;100.00
51452;BME280;37521;52.020;-1.740;2023-02-02T10:04:51;100928.25;;;6.96;100.00
51452;BME280;37521;52.020;-1.740;2023-02-02T10:07:26;100929.97;;;6.97;100.00
51452;BME280;37521;52.020;-1.740;2023-02-02T10:10:01;100928.16;;;7.01;100.00
51452;BME280;37521;52.020;-1.740;2023-02-02T10:12:34;100942.09;;;7.04;100.00
51452;BME280;37521;52.020;-1.740;2023-02-02T10:15:14;100934.19;;;7.06;100.00
51452;BME280;37521;52.020;-1.740;2023-02-02T10:17:50;100932.31;;;7.13;100.00
51452;BME280;37521;52.020;-1.740;2023-02-02T10:20:38;100925.19;;;7.21;100.00
51452;BME280;37521;52.020;-1.740;2023-02-02T10:23:20;100921.53;;;7.28;100.00
51452;BME280;37521;52.020;-1.740;2023-02-02T10:25:55;100930.25;;;7.31;100.00
51452;BME280;37521;52.020;-1.740;2023-02-02T10:28:38;100924.91;;;7.36;100.00
51452;BME280;37521;52.020;-1.740;2023-02-02T10:31:17;100931.00;;;7.38;100.00
51452;BME280;37521;52.020;-1.740;2023-02-02T10:34:00;100929.16;;;7.43;100.00
51452;BME280;37521;52.020;-1.740;2023-02-02T10:36:37;100929.06;;;7.48;100.00
51452;BME280;37521;52.020;-1.740;2023-02-02T10:39:18;100928.13;;;7.52;100.00
51452;BME280;37521;52.020;-1.740;2023-02-02T10:41:58;100941.19;;;7.56;100.00
51452;BME280;37521;52.020;-1.740;2023-02-02T10:44:34;100940.16;;;7.62;100.00
51452;BME280;37521;52.020;-1.740;2023-02-02T10:47:09;100948.03;;;7.63;100.00
51452;BME280;37521;52.020;-1.740;2023-02-02T10:49:40;100943.63;;;7.65;100.00
51452;BME280;37521;52.020;-1.740;2023-02-02T10:52:14;100947.91;;;7.71;100.00
51452;BME280;37521;52.020;-1.740;2023-02-02T10:54:52;100946.00;;;7.78;100.00
51452;BME280;37521;52.020;-1.740;2023-02-02T10:57:33;100934.47;;;7.85;100.00
51452;BME280;37521;52.020;-1.740;2023-02-02T11:00:13;100941.34;;;7.92;100.00
51452;BME280;37521;52.020;-1.740;2023-02-02T11:02:46;100936.91;;;7.94;100.00
51452;BME280;37521;52.020;-1.740;2023-02-02T11:05:19;100945.66;;;7.96;100.00
51452;BME280;37521;52.020;-1.740;2023-02-02T11:08:12;100940.34;;;7.98;100.00
51452;BME280;37521;52.020;-1.740;2023-02-02T11:10:42;100938.50;;;8.01;100.00
51452;BME280;37521;52.020;-1.740;2023-02-02T11:13:15;100946.31;;;8.06;100.00
51452;BME280;37521;52.020;-1.740;2023-02-02T11:15:43;100938.34;;;8.10;100.00
51452;BME280;37521;52.020;-1.740;2023-02-02T11:18:26;100945.06;;;8.22;100.00
51452;BME280;37521;52.020;-1.740;2023-02-02T11:20:56;100936.09;;;8.32;100.00
51452;BME280;37521;52.020;-1.740;2023-02-02T11:23:25;100930.69;;;8.40;100.00
51452;BME280;37521;52.020;-1.740;2023-02-02T11:25:57;100935.72;;;8.49;100.00
51452;BME280;37521;52.020;-1.740;2023-02-02T11:28:29;100933.00;;;8.54;100.00
51452;BME280;37521;52.020;-1.740;2023-02-02T11:30:59;100922.47;;;8.54;100.00
51452;BME280;37521;52.020;-1.740;2023-02-02T11:33:30;100925.06;;;8.55;100.00
51452;BME280;37521;52.020;-1.740;2023-02-02T11:36:01;100916.13;;;8.62;100.00
51452;BME280;37521;52.020;-1.740;2023-02-02T11:38:30;100916.13;;;8.62;100.00
51452;BME280;37521;52.020;-1.740;2023-02-02T11:41:00;100916.13;;;8.62;100.00
51452;BME280;37521;52.020;-1.740;2023-02-02T11:43:32;100918.75;;;8.64;100.00
51452;BME280;37521;52.020;-1.740;2023-02-02T11:46:16;100913.44;;;8.65;100.00
51452;BME280;37521;52.020;-1.740;2023-02-02T11:48:51;100916.94;;;8.66;100.00
51452;BME280;37521;52.020;-1.740;2023-02-02T11:51:22;100912.53;;;8.66;100.00
51452;BME280;37521;52.020;-1.740;2023-02-02T11:54:01;100906.38;;;8.66;100.00
51452;BME280;37521;52.020;-1.740;2023-02-02T11:56:32;100912.59;;;8.63;100.00
51452;BME280;37521;52.020;-1.740;2023-02-02T11:59:01;100910.75;;;8.67;100.00
51452;BME280;37521;52.020;-1.740;2023-02-02T12:01:33;100905.44;;;8.70;100.00
51452;BME280;37521;52.020;-1.740;2023-02-02T12:04:22;100898.31;;;8.73;100.00
51452;BME280;37521;52.020;-1.740;2023-02-02T12:06:50;100895.66;;;8.73;100.00
51452;BME280;37521;52.020;-1.740;2023-02-02T12:09:21;100898.25;;;8.75;100.00
51452;BME280;37521;52.020;-1.740;2023-02-02T12:11:58;100901.66;;;8.80;100.00
51452;BME280;37521;52.020;-1.740;2023-02-02T12:14:35;100896.28;;;8.85;100.00
51452;BME280;37521;52.020;-1.740;2023-02-02T12:17:18;100881.19;;;8.91;100.00
51452;BME280;37521;52.020;-1.740;2023-02-02T12:20:03;100894.47;;;8.87;100.00
51452;BME280;37521;52.020;-1.740;2023-02-02T12:22:50;100883.94;;;8.87;100.00
51452;BME280;37521;52.020;-1.740;2023-02-02T12:25:42;100887.47;;;8.86;100.00
51452;BME280;37521;52.020;-1.740;2023-02-02T12:28:23;100893.69;;;8.83;100.00
51452;BME280;37521;52.020;-1.740;2023-02-02T12:31:01;100886.75;;;8.79;100.00
51452;BME280;37521;52.020;-1.740;2023-02-02T12:33:38;100885.94;;;8.77;100.00
51452;BME280;37521;52.020;-1.740;2023-02-02T12:36:22;100884.31;;;8.71;100.00
51452;BME280;37521;52.020;-1.740;2023-02-02T12:39:05;100882.66;;;8.67;100.00
51452;BME280;37521;52.020;-1.740;2023-02-02T12:41:46;100886.44;;;8.57;100.00
51452;BME280;37521;52.020;-1.740;2023-02-02T12:44:24;100882.03;;;8.58;100.00
51452;BME280;37521;52.020;-1.740;2023-02-02T12:47:03;100882.59;;;8.70;100.00
51452;BME280;37521;52.020;-1.740;2023-02-02T12:49:46;100889.44;;;8.78;100.00
51452;BME280;37521;52.020;-1.740;2023-02-02T12:52:32;100884.88;;;8.84;100.00
51452;BME280;37521;52.020;-1.740;2023-02-02T12:55:15;100875.97;;;8.90;100.00
51452;BME280;37521;52.020;-1.740;2023-02-02T12:57:52;100882.81;;;8.95;100.00
51452;BME280;37521;52.020;-1.740;2023-02-02T13:00:35;100878.41;;;8.97;100.00
51452;BME280;37521;52.020;-1.740;2023-02-02T13:03:20;100875.97;;;8.88;100.00
51452;BME280;37521;52.020;-1.740;2023-02-02T13:06:01;100879.88;;;8.73;100.00
51452;BME280;37521;52.020;-1.740;2023-02-02T13:08:40;100889.53;;;8.73;100.00